Date,TemperatureHighF,TemperatureAvgF,TemperatureLowF,DewpointHighF,DewpointAvgF,DewpointLowF,HumidityHigh,HumidityAvg,HumidityLow,PressureMaxIn,PressureMinIn,WindSpeedMaxMPH,WindSpeedAvgMPH,GustSpeedMaxMPH,PrecipitationSumIn
2013-1-1,29.9,17.7,5.4,26.7,14.9,2.5,92,89,84,30.35,30.02,32,6,32,0.00
2013-1-2,30.6,23.7,15.5,27.5,20.4,12.1,92,87,83,30.43,30.03,33,9,33,0.00
2013-1-3,29.6,21.2,11.8,18.2,14.8,8.4,90,77,61,30.42,30.11,27,6,27,0.00
2013-1-4,31.7,20.4,11.8,19.6,13.4,7.5,85,74,59,30.23,30.06,18,4,18,0.00
2013-1-5,19.3,14.1,6.7,15.5,11.0,3.2,92,87,82,30.32,30.05,20,7,22,0.00
2013-1-6,32.5,21.6,13.4,24.6,17.7,11.2,93,85,71,30.32,29.81,28,9,28,0.00
2013-1-7,30.4,25.7,18.8,23.3,19.3,14.5,85,77,69,29.95,29.81,29,10,29,0.00
2013-1-8,36.5,29.4,18.0,30.8,24.1,14.2,91,81,71,30.00,29.64,42,13,42,0.00
2013-1-9,34.4,25.9,15.0,28.4,20.7,11.2,93,81,70,30.19,29.89,30,9,30,0.00
2013-1-10,35.7,30.8,18.9,30.0,26.6,17.1,93,85,79,29.90,29.61,22,6,22,0.00
2013-1-11,19.0,10.6,4.5,16.8,8.1,1.5,92,90,88,30.03,29.69,24,6,24,0.00
2013-1-12,4.6,0.2,-4.2,1.7,-3.8,-8.2,88,83,76,30.41,30.02,27,8,27,0.00
2013-1-13,5.8,0.6,-4.4,1.2,-3.9,-8.6,93,81,77,30.44,30.33,17,6,17,0.00
2013-1-14,10.4,3.8,-1.3,4.8,-0.9,-5.4,84,81,75,30.44,30.21,19,5,19,0.00
2013-1-15,38.6,22.4,8.0,34.5,18.4,2.8,94,85,79,30.21,29.73,25,9,30,0.00
2013-1-16,37.2,23.5,13.5,33.9,20.8,10.8,94,89,84,30.31,29.78,19,4,19,0.00
2013-1-17,25.7,16.2,10.9,22.7,13.0,6.5,100,88,82,30.53,30.04,21,4,21,0.00
2013-1-18,38.8,32.6,19.5,32.0,27.7,17.1,94,83,74,30.04,29.76,22,4,22,0.00
2013-1-19,38.0,10.1,-3.9,31.9,4.2,-9.4,85,77,71,30.52,29.78,42,13,43,0.00
2013-1-20,3.1,-5.2,-11.8,1.3,-11.3,-18.6,93,74,63,30.75,30.49,36,12,36,0.00
2013-1-21,1.3,-6.2,-13.4,-6.3,-13.1,-19.4,75,72,64,30.65,30.53,25,9,25,0.00
2013-1-22,11.2,5.7,-1.2,6.7,0.8,-7.0,85,80,68,30.53,30.32,18,3,19,0.00
2013-1-23,6.9,-2.0,-7.0,2.6,-7.3,-11.9,84,78,69,30.76,30.38,20,6,20,0.00
2013-1-24,20.1,5.1,-4.6,16.4,-0.0,-9.2,88,79,74,30.72,30.09,32,12,32,0.00
2013-1-25,9.8,1.0,-6.8,4.1,-5.4,-11.7,79,74,65,30.46,30.21,33,7,33,0.00
2013-1-26,31.9,18.6,5.3,24.1,13.9,0.1,87,82,72,30.27,30.05,14,3,16,0.00
2013-1-27,19.8,11.5,4.6,14.2,8.2,1.8,90,87,78,30.06,29.74,10,1,10,0.00
2013-1-28,30.9,21.8,5.1,26.4,19.1,2.4,94,89,76,29.78,29.69,8,2,8,0.00
2013-1-29,21.5,12.5,-1.7,19.6,9.8,-6.4,93,89,80,30.09,29.68,29,6,29,0.00
2013-1-30,-1.7,-10.0,-16.1,-6.4,-15.9,-21.5,87,75,70,30.15,29.98,24,10,24,0.00
2013-1-31,-10.8,-15.6,-19.4,-18.2,-21.7,-25.1,77,73,68,30.44,30.15,24,9,24,0.00
2013-2-1,18.0,4.3,-14.7,13.1,-0.2,-20.5,93,81,75,30.28,29.99,19,6,19,0.00
2013-2-2,31.9,11.4,-0.8,29.5,7.5,-4.9,92,84,80,30.15,29.87,43,10,43,0.00
2013-2-3,16.6,13.0,4.7,12.8,9.6,1.8,89,86,83,30.08,29.89,18,2,18,0.00
2013-2-4,37.2,24.0,3.4,31.2,20.3,0.5,91,86,76,29.96,29.52,28,8,28,0.00
2013-2-5,34.2,20.0,11.5,29.2,16.0,8.3,95,85,78,29.90,29.56,24,4,24,0.00
2013-2-6,28.1,21.6,13.7,23.4,18.6,11.5,93,88,82,30.06,29.66,18,4,18,0.00
2013-2-7,22.4,15.0,7.7,20.8,12.6,5.1,94,91,88,30.18,30.06,14,4,14,0.00
2013-2-8,27.2,24.2,21.0,25.4,22.5,18.7,95,93,91,30.09,29.85,17,5,17,0.00
2013-2-9,29.2,21.2,12.2,25.3,18.3,9.9,100,89,76,29.85,29.75,12,3,12,0.00
2013-2-10,24.9,20.4,14.3,23.5,18.8,12.0,100,94,91,29.93,29.73,19,3,19,0.00
2013-2-11,24.5,19.6,16.3,19.1,15.9,12.3,93,86,79,30.00,29.72,24,7,24,0.00
2013-2-12,33.9,26.8,18.4,27.8,21.6,14.5,87,81,74,29.81,29.67,25,8,25,0.00
2013-2-13,32.9,29.6,27.2,31.3,27.3,22.7,96,91,83,29.67,29.49,16,2,17,0.00
2013-2-14,29.9,20.0,13.6,28.8,17.2,10.4,96,89,77,30.22,29.66,21,7,21,0.00
2013-2-15,20.6,15.5,11.4,15.9,11.5,8.6,90,84,75,30.35,30.01,17,6,18,0.00
2013-2-16,32.9,26.8,19.7,27.2,23.2,15.0,99,87,78,30.01,29.63,17,5,17,0.00
2013-2-17,40.9,33.1,18.2,33.2,29.1,16.2,97,86,72,29.63,29.34,26,9,26,0.00
2013-2-18,18.4,7.9,-7.9,16.5,4.4,-12.6,93,85,79,30.33,29.60,31,9,31,0.00
2013-2-19,-0.2,-8.9,-17.7,-8.8,-16.0,-22.8,80,71,53,30.51,30.33,18,4,18,0.00
2013-2-20,11.0,1.3,-10.2,7.0,-4.5,-16.1,84,76,70,30.45,30.16,23,8,23,0.00
2013-2-21,21.5,16.5,11.0,18.1,12.8,7.0,88,85,81,30.18,30.05,18,6,18,0.00
2013-2-22,25.2,17.6,11.9,19.4,13.5,7.9,89,84,77,30.05,29.74,15,5,15,0.00
2013-2-23,35.0,24.1,12.7,29.4,19.8,10.0,91,84,69,29.75,29.63,16,6,16,0.00
2013-2-24,33.1,25.8,18.0,30.6,21.5,14.4,92,84,77,29.98,29.72,26,8,26,0.00
2013-2-25,38.1,28.3,19.2,29.9,21.8,14.3,84,77,70,29.95,29.74,22,8,22,0.00
2013-2-26,37.8,27.7,21.8,28.5,22.6,18.5,93,81,68,30.06,29.74,22,6,22,0.00
2013-2-27,27.2,21.9,17.5,23.0,19.0,14.2,92,88,84,30.27,30.05,13,3,13,0.00
2013-2-28,27.5,21.6,16.4,22.0,18.0,13.4,90,86,79,30.28,30.21,13,2,13,0.00
2013-3-1,27.2,23.1,17.7,24.6,20.5,15.4,92,90,85,30.31,30.10,22,6,22,0.00
2013-3-2,36.1,28.1,22.5,30.6,24.8,20.5,93,88,79,30.10,29.89,21,4,22,0.00
2013-3-3,28.1,23.7,19.9,25.5,21.9,18.1,94,93,89,29.89,29.60,19,6,19,0.00
2013-3-4,24.8,21.4,15.9,23.5,19.9,13.8,95,94,92,30.17,29.56,25,8,25,0.00
2013-3-5,19.4,11.9,4.0,16.8,9.5,1.2,100,90,88,30.41,30.17,18,4,18,0.00
2013-3-6,16.6,8.5,-0.9,14.1,5.8,-4.1,90,89,86,30.39,30.11,18,4,18,0.00
2013-3-7,27.6,17.7,7.4,25.1,15.4,5.0,92,91,89,30.12,30.02,16,5,16,0.00
2013-3-8,24.9,20.2,13.5,22.6,16.9,10.7,93,87,80,30.16,30.00,14,4,14,0.00
2013-3-9,28.2,20.0,10.1,26.1,17.1,6.7,93,89,81,30.16,29.88,32,8,32,0.00
2013-3-10,21.9,12.4,3.9,15.0,8.0,1.0,98,83,71,30.30,30.02,15,5,15,0.00
2013-3-11,31.7,23.8,14.4,26.7,19.7,10.4,93,85,79,30.02,29.77,33,12,33,0.00
2013-3-12,24.1,16.6,2.4,22.3,12.0,-1.2,93,82,68,30.27,29.90,33,9,33,0.00
2013-3-13,42.0,22.5,1.7,32.3,16.7,-1.6,87,79,65,30.27,29.86,24,7,24,0.00
2013-3-14,41.8,29.5,22.4,34.4,25.9,18.9,93,87,73,30.07,29.88,16,4,16,0.00
2013-3-15,22.1,10.5,-3.3,19.3,7.7,-6.6,100,89,86,30.20,29.94,18,5,19,0.00
2013-3-16,10.8,1.7,-10.1,6.2,-2.3,-14.0,92,83,77,30.29,30.19,14,3,14,0.00
2013-3-17,18.8,12.3,5.0,16.0,9.1,0.9,93,87,81,30.19,29.54,27,9,27,0.00
2013-3-18,13.1,7.7,2.7,10.9,3.1,-1.8,91,81,67,30.02,29.59,35,13,35,0.00
2013-3-19,13.3,6.6,-0.4,7.1,2.1,-4.4,93,82,76,30.43,30.01,28,7,28,0.00
2013-3-20,18.3,7.8,-3.0,8.8,1.9,-6.4,87,77,57,30.42,30.11,15,4,15,0.00
2013-3-21,15.3,7.5,-2.4,9.2,2.1,-6.3,93,79,68,30.11,30.00,18,6,18,0.00
2013-3-22,18.1,12.2,5.1,14.2,8.2,1.5,90,84,75,30.12,30.00,20,4,20,0.00
2013-3-23,22.7,17.2,13.6,17.4,14.1,11.2,92,88,79,30.20,30.11,13,3,13,0.00
2013-3-24,23.2,17.6,7.9,17.7,14.1,4.7,93,87,76,30.32,30.17,17,4,17,0.00
2013-3-25,22.4,10.2,1.0,15.9,6.4,-2.0,98,84,73,30.40,30.31,8,3,10,0.00
2013-3-26,27.5,13.8,-2.8,20.8,9.5,-6.2,90,83,74,30.31,30.17,17,4,17,0.00
2013-3-27,29.7,17.5,4.6,21.9,13.4,1.2,91,84,72,30.19,30.15,16,3,16,0.00
2013-3-28,27.5,16.8,6.4,23.4,14.4,3.6,94,90,84,30.20,30.14,7,1,7,0.00
2013-3-29,36.7,23.1,9.4,31.3,20.5,6.9,95,90,74,30.19,29.95,12,1,12,0.01
2013-3-30,40.7,32.3,23.4,35.0,28.2,21.4,95,85,71,29.97,29.88,29,7,29,0.01
2013-3-31,30.0,23.9,15.2,24.7,17.4,10.2,88,76,64,30.21,29.93,34,6,34,0.00
2013-4-1,29.4,18.8,8.8,17.1,11.2,4.6,93,73,54,30.29,30.21,11,2,11,0.00
2013-4-2,30.9,21.7,10.8,21.5,14.0,5.9,85,73,52,30.28,30.06,22,5,24,0.00
2013-4-3,44.3,34.2,25.6,33.8,28.1,20.2,84,78,66,30.06,29.73,37,15,40,0.00
2013-4-4,34.7,29.4,24.3,26.4,23.2,20.5,88,78,61,30.20,30.04,21,6,21,0.00
2013-4-5,35.6,27.3,21.3,29.6,22.4,18.0,93,82,71,30.10,29.62,23,9,26,0.00
2013-4-6,34.4,30.2,25.0,32.2,28.2,23.4,96,93,88,29.81,29.57,16,3,16,0.00
2013-4-7,38.7,33.4,30.1,34.8,31.0,27.3,95,91,86,29.79,29.59,16,5,16,0.08
2013-4-8,32.6,20.6,11.2,32.0,17.5,7.2,100,88,76,30.34,29.68,19,6,20,0.00
2013-4-9,29.0,21.7,8.0,22.9,16.0,4.9,88,79,70,30.47,30.32,15,5,15,0.02
2013-4-10,33.7,25.5,16.1,24.8,19.4,13.4,91,78,61,30.37,30.01,11,3,11,0.00
2013-4-11,35.2,28.3,23.8,26.0,22.1,18.9,92,78,62,30.01,29.84,14,3,14,0.00
2013-4-12,33.4,28.6,24.9,28.7,25.7,23.1,100,89,80,29.90,29.86,12,2,12,0.04
2013-4-13,32.4,28.3,22.4,28.2,24.9,20.9,95,88,82,29.86,29.69,22,7,22,0.00
2013-4-14,28.7,26.1,21.6,27.6,23.3,19.0,96,90,80,29.76,29.68,26,8,27,0.00
2013-4-15,31.2,28.3,24.7,30.0,27.1,23.3,97,96,95,30.01,29.68,20,6,20,0.29
2013-4-16,32.7,26.4,22.5,29.6,24.3,21.2,96,92,85,30.33,30.01,9,3,14,0.06
2013-4-17,30.4,25.8,21.9,25.6,23.0,19.8,95,90,77,30.33,30.18,16,4,16,0.01
2013-4-18,34.3,26.2,16.4,26.0,20.5,13.9,91,80,68,30.18,29.97,20,6,20,0.00
2013-4-19,37.7,28.6,20.1,23.5,19.5,15.9,85,70,47,30.02,29.93,11,3,11,0.00
2013-4-20,33.1,27.0,17.9,30.3,20.8,11.2,91,78,63,30.02,29.85,31,10,31,0.00
2013-4-21,34.4,31.8,27.5,33.7,28.3,22.6,100,87,78,30.17,29.78,34,13,34,0.20
2013-4-22,32.0,26.9,20.0,23.0,19.8,15.3,85,75,57,30.36,30.17,23,8,23,0.00
2013-4-23,42.4,30.4,17.2,31.8,23.2,12.2,87,75,63,30.30,29.91,23,4,23,0.00
2013-4-24,32.5,30.0,23.8,29.0,23.7,19.3,91,78,66,30.00,29.81,38,11,38,0.00
2013-4-25,53.4,34.5,19.5,38.7,26.9,15.4,87,75,53,29.97,29.67,22,7,22,0.00
2013-4-26,66.0,50.0,35.4,45.3,36.4,30.4,84,61,41,29.90,29.76,14,5,14,0.00
2013-4-27,72.0,54.2,44.0,47.4,38.9,33.6,69,57,36,29.78,29.48,24,8,24,0.00
2013-4-28,57.6,50.1,38.9,39.1,31.7,16.6,69,51,25,29.76,29.43,32,8,32,0.00
2013-4-29,64.8,48.0,35.8,45.2,33.5,24.4,79,58,38,29.72,29.26,31,8,31,0.00
2013-4-30,46.7,38.3,27.3,39.3,30.8,20.8,84,75,65,30.05,29.26,37,12,37,0.00
2013-5-1,45.7,34.8,24.7,26.5,23.2,20.4,93,65,41,30.54,30.05,25,8,25,0.00
2013-5-2,52.1,38.7,24.1,28.0,23.5,19.9,89,58,32,30.61,30.36,19,3,19,0.00
2013-5-3,55.7,43.4,31.2,29.8,25.5,20.9,77,52,31,30.37,30.14,17,6,17,0.00
2013-5-4,59.7,43.1,28.7,34.1,28.5,21.4,86,60,27,30.24,30.14,14,2,17,0.00
2013-5-5,67.5,50.9,35.3,37.1,33.2,28.2,77,54,30,30.16,29.94,12,2,12,0.00
2013-5-6,73.9,60.3,44.6,36.6,32.9,28.8,63,39,20,29.96,29.80,17,5,17,0.00
2013-5-7,77.2,63.4,45.5,42.1,36.2,33.1,63,40,23,29.81,29.65,14,4,14,0.00
2013-5-8,62.1,52.5,42.1,41.2,34.4,24.0,87,53,27,30.11,29.70,22,6,22,0.00
2013-5-9,59.9,46.5,28.0,28.7,24.8,19.9,82,47,23,30.20,30.05,18,4,18,0.00
2013-5-10,64.8,52.2,39.9,41.8,31.3,22.6,68,47,27,30.13,29.83,35,10,35,0.00
2013-5-11,55.2,43.2,29.7,29.3,22.7,14.7,82,50,21,30.30,30.12,20,4,20,0.00
2013-5-12,71.3,60.7,35.6,34.5,27.3,20.5,62,30,20,30.12,29.62,19,7,19,0.00
2013-5-13,88.1,72.1,59.4,48.6,41.5,33.4,49,34,21,29.62,29.36,28,10,35,0.00
2013-5-14,76.5,64.3,55.7,57.5,48.4,37.9,95,60,32,29.62,29.26,56,11,56,0.26
2013-5-15,76.8,66.0,52.9,44.8,39.9,37.2,67,40,25,29.72,29.62,20,4,21,0.00
2013-5-16,58.8,53.9,48.2,40.9,38.8,37.3,67,57,49,29.70,29.68,5,0,5,0.00
2013-5-17,69.9,59.6,51.6,56.6,52.6,49.6,94,79,63,29.77,29.64,6,4,14,0.00
2013-5-18,63.2,58.5,54.0,60.1,56.8,52.7,98,94,74,29.70,29.59,17,3,17,0.53
2013-5-19,56.4,53.3,51.9,54.6,52.0,50.7,98,96,93,29.69,29.52,32,6,32,1.25
2013-5-20,53.6,51.0,46.9,53.0,49.8,45.0,98,96,88,29.74,29.54,31,8,31,0.75
2013-5-21,56.2,49.7,44.6,50.4,45.6,41.6,96,86,74,29.86,29.73,26,5,26,0.04
2013-5-22,71.2,57.5,40.7,47.8,41.9,34.3,94,61,29,30.04,29.85,26,5,26,0.00
2013-5-23,66.8,57.0,43.6,47.4,41.8,35.7,93,60,34,30.13,29.98,26,6,26,0.00
2013-5-24,59.5,54.0,51.7,53.0,46.3,40.8,94,76,53,30.00,29.80,23,6,29,0.04
2013-5-25,62.8,54.4,50.2,57.3,51.9,49.2,98,92,79,29.93,29.83,19,4,19,0.02
2013-5-26,62.7,56.8,52.1,57.0,53.9,50.9,96,90,82,29.84,29.73,11,4,23,0.00
2013-5-27,62.1,56.1,52.1,56.9,54.2,51.1,98,94,82,29.75,29.50,30,5,30,0.49
2013-5-28,71.5,62.1,55.3,59.5,56.0,53.5,98,82,55,29.50,29.42,19,4,19,0.09
2013-5-29,73.5,59.4,51.3,57.6,53.7,49.8,97,83,52,29.52,29.40,21,2,21,0.00
2013-5-30,59.8,56.1,52.7,56.8,54.5,51.1,98,95,84,29.47,29.23,25,7,25,1.01
2013-5-31,57.1,51.3,47.7,56.2,50.5,46.1,100,97,92,29.77,29.26,23,5,24,0.99
2013-6-1,64.1,53.4,44.2,48.8,43.8,38.2,93,72,44,29.98,29.77,20,2,20,0.00
2013-6-2,63.4,55.1,43.8,49.0,43.3,38.5,92,66,49,29.98,29.84,13,2,13,0.00
2013-6-3,53.2,48.7,46.0,46.2,42.8,36.9,96,81,60,29.87,29.74,25,6,25,0.66
2013-6-4,49.2,47.7,46.1,48.4,46.7,44.7,98,96,94,29.97,29.79,23,4,24,1.16
2013-6-5,66.8,57.3,45.9,51.8,46.2,41.2,95,69,42,30.03,29.93,16,2,16,0.00
2013-6-6,70.5,59.1,47.6,54.5,47.5,42.6,92,68,39,29.93,29.78,13,2,15,0.00
2013-6-7,75.8,62.6,52.7,52.8,48.7,44.2,84,63,35,29.78,29.63,19,4,19,0.00
2013-6-8,64.9,60.9,56.6,59.3,56.9,48.5,94,87,58,29.64,29.48,21,6,21,0.20
2013-6-9,74.8,64.0,52.7,57.5,53.6,49.3,94,72,43,29.71,29.50,29,3,29,0.11
2013-6-10,74.8,65.5,57.7,62.1,56.5,49.3,96,75,44,29.67,29.53,18,3,18,0.41
2013-6-11,78.4,67.1,53.6,56.2,52.4,48.5,89,62,37,29.76,29.67,12,1,12,0.00
2013-6-12,74.4,64.2,56.6,58.0,53.6,51.1,87,69,51,29.92,29.75,14,2,14,0.00
2013-6-13,76.7,67.7,55.8,57.2,54.3,51.0,88,64,45,29.95,29.69,26,2,26,0.00
2013-6-14,76.9,66.8,58.9,64.8,57.0,49.0,92,72,48,29.71,29.50,0,0,0,0.17
2013-6-15,74.2,65.6,55.1,54.1,50.8,48.2,83,61,42,29.69,29.62,26,2,26,0.01
2013-6-16,71.8,64.4,56.4,56.7,52.3,49.3,83,66,53,29.77,29.65,26,0,26,0.00
2013-6-17,60.2,58.8,56.9,56.7,55.7,54.5,93,90,84,29.85,29.77,0,0,0,0.04
2013-6-18,77.3,69.6,52.3,57.8,54.0,50.0,95,60,40,29.92,29.72,12,2,12,0.00
2013-6-19,67.3,65.5,64.3,56.0,55.6,55.2,74,71,66,29.72,29.72,0,0,0,0.00
2013-6-20,75.3,69.4,61.2,67.1,63.4,59.4,95,82,70,29.69,29.49,7,1,18,0.42
2013-6-21,72.0,65.9,58.6,68.8,63.5,57.4,98,92,80,29.80,29.67,6,0,6,0.05
2013-6-22,76.8,70.0,60.4,67.0,63.7,59.5,98,81,66,29.74,29.55,17,4,17,0.01
2013-6-23,73.5,63.2,58.2,62.5,58.1,54.5,97,85,52,29.57,29.46,20,6,22,0.68
2013-6-24,84.1,71.9,59.4,69.0,60.3,53.5,86,68,50,29.57,29.46,17,5,17,0.00
2013-6-25,85.7,73.5,64.8,74.5,67.0,62.3,94,81,63,29.46,29.34,20,4,20,0.00
2013-6-26,82.8,73.7,61.3,66.0,60.2,54.2,96,65,42,29.65,29.44,24,6,24,0.00
2013-6-27,80.4,71.8,61.2,59.4,56.4,53.3,81,60,42,29.81,29.65,27,8,27,0.00
2013-6-28,79.8,67.8,61.1,60.6,57.4,53.7,87,72,41,29.88,29.81,16,5,24,0.00
2013-6-29,77.4,68.7,59.3,63.9,58.9,54.9,87,72,55,29.92,29.85,18,3,18,0.00
2013-6-30,79.0,71.5,62.5,62.2,56.9,48.9,89,63,40,30.00,29.92,12,2,12,0.00
2013-7-1,82.3,71.7,58.3,62.8,55.3,51.6,86,60,36,30.05,29.96,8,3,19,0.00
2013-7-2,84.6,76.9,62.3,60.5,56.2,52.9,81,51,35,29.97,29.80,13,4,13,0.00
2013-7-3,87.0,75.3,63.3,61.0,57.9,55.3,78,57,38,29.80,29.49,33,8,33,0.00
2013-7-4,82.7,74.3,64.7,69.4,62.8,55.8,93,69,42,29.56,29.44,26,6,26,0.19
2013-7-5,83.3,70.0,59.9,67.8,61.5,56.9,94,76,51,29.62,29.50,32,3,32,1.08
2013-7-6,82.9,70.4,62.3,71.7,64.2,59.4,98,83,51,29.64,29.54,13,3,14,0.12
2013-7-7,80.5,69.8,59.5,64.3,59.6,54.7,89,72,47,29.76,29.64,13,3,13,0.00
2013-7-8,83.0,73.8,63.6,71.4,64.6,58.3,93,74,59,29.78,29.64,21,3,21,0.23
2013-7-9,69.7,64.6,59.4,62.9,57.9,54.0,94,80,63,29.92,29.58,11,4,26,0.08
2013-7-10,79.6,70.8,56.3,61.6,57.6,52.9,91,65,43,29.92,29.76,11,3,11,0.00
2013-7-11,90.2,73.3,64.8,73.3,64.0,58.2,84,74,49,29.76,29.39,30,7,30,0.13
2013-7-12,84.2,77.3,72.5,70.6,66.5,63.3,86,70,57,29.57,29.38,24,5,24,0.02
2013-7-13,87.3,72.5,59.9,70.7,64.2,57.6,95,77,51,29.85,29.60,12,4,27,0.00
2013-7-14,72.6,63.7,57.8,60.2,57.5,54.8,94,81,63,30.05,29.86,9,4,19,0.00
2013-7-15,80.7,73.2,60.0,72.2,67.1,58.0,95,82,71,30.01,29.69,14,6,31,0.47
2013-7-16,73.7,67.4,62.6,66.0,62.0,58.3,95,83,71,30.02,29.70,14,4,22,0.58
2013-7-17,74.3,66.5,63.5,62.7,59.5,55.7,87,79,59,30.04,29.81,16,4,16,0.00
2013-7-18,84.4,68.1,60.5,71.8,61.0,53.6,93,79,46,29.81,29.57,31,5,31,0.00
2013-7-19,81.3,66.2,61.2,67.3,59.7,56.2,95,80,53,29.77,29.65,23,5,23,0.65
2013-7-20,68.5,62.2,55.4,59.6,55.6,51.0,96,80,68,29.87,29.72,10,3,14,0.01
2013-7-21,82.6,67.5,55.5,69.3,60.1,52.9,93,78,61,29.76,29.38,31,8,31,0.00
2013-7-22,70.5,64.2,58.8,60.2,56.8,54.4,94,78,63,29.80,29.54,12,4,19,0.00
2013-7-23,72.1,65.6,58.5,60.0,56.8,55.0,91,74,61,29.90,29.80,12,3,12,0.00
2013-7-24,77.7,70.2,59.6,63.5,58.3,53.3,94,68,45,29.86,29.77,26,6,26,0.01
2013-7-25,66.7,61.8,54.7,58.8,54.7,50.1,94,79,59,30.01,29.76,29,7,29,0.05
2013-7-26,67.7,58.4,49.5,55.3,50.7,46.7,96,78,52,30.15,30.01,14,4,14,0.00
2013-7-27,69.7,62.4,44.6,52.6,48.5,42.9,95,62,46,30.11,29.90,14,3,15,0.00
2013-7-28,73.5,62.9,50.3,51.5,48.2,44.5,83,61,39,29.90,29.75,18,6,18,0.00
2013-7-29,69.4,63.2,57.8,63.9,56.2,49.2,94,79,60,29.82,29.69,22,6,22,0.24
2013-7-30,71.6,63.0,54.2,60.7,56.9,52.1,94,81,63,29.93,29.82,5,2,11,0.00
2013-7-31,74.3,63.8,53.1,55.8,52.4,49.2,88,68,49,29.99,29.85,13,4,18,0.00
2013-8-1,76.0,65.5,56.0,59.8,54.1,50.0,85,68,47,29.89,29.77,14,3,14,0.00
2013-8-2,74.3,63.4,53.3,58.0,54.1,51.0,94,74,49,29.91,29.79,14,2,14,0.00
2013-8-3,73.9,67.7,57.5,57.2,54.6,52.9,89,64,51,30.04,29.95,17,4,17,0.00
2013-8-4,68.2,63.1,58.2,62.4,56.2,51.9,88,78,70,30.00,29.77,23,6,23,0.00
2013-8-5,79.0,69.4,57.6,63.0,58.0,51.1,94,70,43,29.78,29.56,15,3,16,0.06
2013-8-6,69.4,63.2,57.8,62.9,59.3,56.2,95,88,72,29.77,29.50,10,2,14,0.59
2013-8-7,69.0,59.4,52.9,60.3,54.8,50.4,98,86,61,29.89,29.76,15,2,15,0.08
2013-8-8,69.5,59.2,50.0,59.4,52.9,47.4,92,81,63,29.93,29.88,15,3,15,0.01
2013-8-9,65.8,59.8,49.2,56.9,52.7,46.2,93,78,69,30.02,29.96,17,3,23,0.00
2013-8-10,72.3,61.0,49.5,61.0,54.3,48.0,96,80,61,30.04,29.89,13,2,13,0.00
2013-8-11,74.6,60.7,53.0,60.1,54.7,51.1,98,83,46,29.99,29.90,7,2,7,0.00
2013-8-12,77.8,65.3,49.2,60.0,54.0,46.6,93,69,44,29.99,29.92,10,2,10,0.00
2013-8-13,76.5,66.0,54.6,58.4,54.3,50.9,91,68,47,30.03,29.93,18,4,18,0.00
2013-8-14,75.5,66.7,61.6,60.4,54.6,49.7,79,66,55,29.96,29.81,8,4,15,0.00
2013-8-15,81.0,71.1,59.4,67.1,62.3,55.8,95,76,54,29.87,29.78,17,6,19,0.60
2013-8-16,83.8,72.9,62.8,64.1,60.5,57.5,84,67,47,29.80,29.71,27,12,27,0.00
2013-8-17,87.0,75.8,64.1,70.2,64.6,58.9,86,70,53,29.71,29.55,29,10,29,0.00
2013-8-18,84.9,74.5,65.9,72.7,65.3,58.5,95,75,52,29.70,29.55,28,6,28,0.00
2013-8-19,94.5,79.1,65.4,68.3,62.0,57.5,78,58,33,29.65,29.48,20,6,20,0.00
2013-8-20,90.2,77.7,65.3,67.5,60.1,56.4,79,57,35,29.66,29.46,20,6,20,0.00
2013-8-21,76.5,67.5,55.5,59.5,52.9,45.9,92,61,45,29.96,29.65,11,2,12,0.00
2013-8-22,79.7,68.5,53.5,53.1,48.8,43.2,81,53,30,30.04,29.85,12,3,12,0.00
2013-8-23,87.4,74.9,63.5,69.9,62.0,51.0,75,65,53,29.86,29.51,21,8,23,0.00
2013-8-24,86.8,76.9,71.4,71.9,67.4,62.6,89,74,52,29.59,29.43,17,4,17,0.05
2013-8-25,92.2,78.8,64.7,71.4,62.6,55.0,86,61,31,29.71,29.58,11,2,11,0.08
2013-8-26,86.3,75.4,67.3,71.1,65.6,59.1,89,73,55,29.75,29.58,27,5,27,0.97
2013-8-27,87.8,76.3,67.9,73.1,68.5,64.6,92,78,53,29.72,29.62,10,3,11,0.00
2013-8-28,90.8,78.9,66.4,72.2,66.5,62.2,88,68,45,29.76,29.65,15,2,15,0.00
2013-8-29,83.0,74.9,65.8,71.9,67.9,64.4,97,80,62,29.76,29.57,21,3,21,0.81
2013-8-30,89.0,77.4,67.2,71.4,67.5,64.0,92,74,50,29.78,29.54,23,7,23,0.00
2013-8-31,76.5,70.8,60.6,65.2,59.5,52.0,90,69,44,29.74,29.51,28,9,28,0.00
2013-9-1,71.1,62.7,56.3,57.7,54.6,46.2,96,77,55,29.92,29.74,10,3,10,0.00
2013-9-2,81.2,67.9,53.4,61.7,55.4,48.4,86,66,49,29.90,29.72,16,5,16,0.00
2013-9-3,89.5,75.2,64.6,69.4,62.1,58.2,81,66,37,29.83,29.70,18,4,18,0.00
2013-9-4,75.9,63.5,54.9,63.0,51.7,39.4,87,67,49,30.00,29.83,13,3,13,0.00
2013-9-5,88.9,73.9,61.4,69.1,60.7,53.5,77,65,48,29.96,29.69,14,5,21,0.00
2013-9-6,89.3,78.5,70.4,72.9,67.3,64.0,82,70,48,29.71,29.62,17,4,17,0.00
2013-9-7,75.9,67.7,61.7,67.7,60.2,56.2,92,78,55,29.93,29.71,21,3,21,0.34
2013-9-8,70.2,64.3,60.0,64.3,59.7,56.5,93,85,79,29.87,29.60,4,2,11,0.00
2013-9-9,74.3,65.3,59.7,66.8,62.5,57.6,98,92,69,29.63,29.50,24,3,24,0.91
2013-9-10,78.0,67.1,58.1,62.5,57.9,51.3,97,76,42,29.78,29.62,21,6,21,0.00
2013-9-11,74.4,65.9,56.1,55.1,50.6,46.8,83,60,40,30.07,29.80,20,4,20,0.00
2013-9-12,72.0,60.4,46.4,54.8,49.0,43.0,90,68,43,30.18,30.02,10,2,10,0.00
2013-9-13,82.7,67.6,54.6,59.3,53.4,49.3,85,63,41,30.02,29.61,29,8,29,0.00
2013-9-14,75.2,65.2,53.6,62.6,54.9,48.2,83,70,57,29.92,29.54,23,5,23,0.00
2013-9-15,62.7,48.9,41.3,48.4,43.2,39.5,96,82,49,30.17,29.92,13,2,14,0.00
2013-9-16,71.5,61.1,46.7,55.6,51.0,42.5,91,71,54,30.10,29.69,26,11,30,0.00
2013-9-17,80.4,66.2,56.0,65.1,57.6,52.3,89,75,58,29.70,29.41,26,10,26,0.00
2013-9-18,73.0,65.7,60.5,65.5,61.8,58.3,95,88,75,29.47,29.34,22,2,22,0.00
2013-9-19,63.1,54.3,48.9,61.9,50.5,41.7,96,87,76,29.87,29.42,27,9,27,0.01
2013-9-20,61.0,51.2,40.9,45.0,41.8,37.6,91,72,49,29.90,29.80,18,5,18,0.00
2013-9-21,69.6,53.9,39.8,48.2,43.4,37.3,96,71,43,29.81,29.54,21,6,22,0.00
2013-9-22,78.8,60.0,45.4,62.0,52.2,43.0,93,77,53,29.54,29.23,15,3,15,0.01
2013-9-23,61.3,57.6,55.3,58.6,56.1,53.6,97,95,91,29.59,29.22,20,5,21,0.44
2013-9-24,71.8,59.8,49.0,54.1,46.8,41.8,94,65,36,29.75,29.59,19,4,19,0.00
2013-9-25,75.8,65.2,54.6,57.3,52.6,43.3,76,65,49,29.63,29.36,26,7,26,0.00
2013-9-26,67.5,59.0,50.4,58.4,52.8,43.0,95,81,66,29.69,29.29,25,5,25,0.16
2013-9-27,54.3,49.9,45.9,49.0,45.9,41.9,94,87,76,29.70,29.62,12,4,15,0.20
2013-9-28,63.0,53.2,46.3,47.3,43.3,40.0,97,71,45,29.66,29.53,17,5,20,0.00
2013-9-29,71.5,56.5,48.3,51.1,45.5,40.8,81,68,45,29.58,29.30,26,10,30,0.00
2013-9-30,73.4,59.5,49.2,51.5,44.5,38.3,90,60,40,29.38,29.22,42,7,42,0.11
2013-10-1,65.0,55.3,47.5,44.8,38.0,34.0,76,54,33,29.72,29.38,29,8,29,0.00
2013-10-2,64.6,55.0,44.5,44.8,37.2,31.3,75,53,30,29.86,29.72,22,4,22,0.00
2013-10-3,56.7,47.1,40.9,43.3,39.1,34.6,90,75,58,30.12,29.86,13,3,13,0.00
2013-10-4,44.1,39.7,37.3,40.4,33.8,31.2,89,80,71,30.25,30.11,15,4,19,0.00
2013-10-5,48.2,39.2,31.4,36.5,31.8,27.9,93,75,56,30.14,29.93,19,4,19,0.00
2013-10-6,68.8,50.3,31.5,43.4,35.9,27.3,88,61,30,29.94,29.75,20,4,20,0.00
2013-10-7,69.9,55.3,41.4,47.9,41.6,36.1,83,62,41,29.79,29.44,32,7,32,0.00
2013-10-8,61.7,51.9,47.1,43.8,41.8,39.5,80,69,48,29.46,29.38,28,7,28,0.00
2013-10-9,64.1,54.9,44.3,45.7,40.4,33.6,78,59,46,29.88,29.67,10,2,10,0.00
2013-10-10,64.9,52.6,40.2,50.6,43.8,37.2,92,74,52,29.85,29.48,9,2,9,0.00
2013-10-11,54.8,50.9,44.6,53.0,49.1,42.5,98,94,82,29.50,29.20,47,8,47,0.79
2013-10-12,52.6,45.8,40.4,43.4,35.9,32.0,95,70,49,30.06,29.38,34,14,34,0.07
2013-10-13,55.7,43.8,32.5,37.8,32.6,28.6,87,66,43,30.23,30.06,10,2,10,0.00
2013-10-14,41.9,40.1,38.1,40.7,38.3,34.0,96,94,75,30.19,30.06,22,5,22,0.85
2013-10-15,50.3,41.0,33.2,40.4,35.1,31.9,96,81,54,30.16,29.90,21,5,21,0.00
2013-10-16,57.2,43.8,37.4,44.3,36.1,31.3,89,75,62,29.90,29.71,22,5,22,0.01
2013-10-17,47.8,39.9,34.7,39.5,32.9,28.1,93,78,51,29.94,29.82,17,5,21,0.02
2013-10-18,45.2,40.5,33.8,38.3,34.1,29.7,93,79,60,29.87,29.66,22,6,22,0.00
2013-10-19,46.3,39.8,35.1,39.9,32.8,24.1,96,77,58,29.71,29.47,12,3,12,0.04
2013-10-20,43.7,33.9,31.0,42.0,30.7,25.8,96,88,79,29.92,29.46,18,4,19,0.08
2013-10-21,35.1,30.7,25.1,30.0,25.6,21.4,92,82,66,29.93,29.84,10,2,10,0.00
2013-10-22,35.4,32.0,29.2,30.3,28.3,27.0,93,86,77,30.05,29.89,11,2,11,0.02
2013-10-23,40.0,33.8,29.9,33.6,29.8,27.0,95,86,70,30.16,29.95,20,4,20,0.06
2013-10-24,38.0,33.2,28.4,31.6,28.5,25.4,93,83,71,30.25,30.07,17,4,17,0.00
2013-10-25,59.2,43.2,32.4,42.0,33.2,28.3,89,70,39,30.07,29.76,40,13,40,0.01
2013-10-26,46.7,36.6,27.3,32.7,27.7,23.6,93,72,51,30.14,29.69,28,7,28,0.00
2013-10-27,47.1,36.2,24.9,33.7,28.6,17.0,84,74,58,30.33,29.67,23,6,23,0.00
2013-10-28,27.2,24.4,22.9,18.0,16.6,15.1,77,72,67,30.53,30.33,13,4,13,0.00
2013-10-29,37.5,30.0,24.4,28.2,23.3,17.4,84,77,67,30.40,29.96,14,4,14,0.00
2013-10-30,45.3,36.1,30.8,35.9,31.2,27.5,93,83,69,29.96,29.52,14,6,18,0.00
2013-10-31,47.9,36.6,29.9,34.7,30.9,27.0,92,81,60,29.52,29.40,16,5,16,0.00
2013-11-1,43.6,40.1,36.4,37.9,35.0,31.2,92,82,72,29.85,29.44,27,9,27,0.03
2013-11-2,54.9,41.9,31.1,37.2,30.3,26.0,86,66,34,29.91,29.63,17,4,17,0.00
2013-11-3,48.5,42.5,36.1,36.7,33.3,29.0,81,70,60,29.63,29.36,19,5,19,0.00
2013-11-4,36.4,30.2,22.5,29.3,22.1,16.8,81,72,62,29.97,29.51,31,11,31,0.00
2013-11-5,35.5,27.4,17.3,22.9,19.1,13.2,85,71,55,30.12,29.97,18,5,18,0.00
2013-11-6,41.5,28.9,21.7,29.2,21.9,13.5,93,76,57,30.15,29.95,15,2,15,0.00
2013-11-7,44.1,33.9,23.4,29.2,23.8,15.4,77,67,49,30.15,29.85,18,5,18,0.00
2013-11-8,43.9,38.5,33.6,39.0,32.0,24.8,93,78,64,29.85,29.42,32,7,32,0.00
2013-11-9,35.8,30.2,22.6,31.1,23.8,19.0,88,77,69,30.19,29.68,36,12,36,0.00
2013-11-10,33.8,24.9,9.6,30.0,16.0,0.4,93,70,46,30.42,30.03,26,7,26,0.00
2013-11-11,21.5,11.8,1.5,13.2,2.3,-2.8,93,67,35,30.67,30.42,20,4,20,0.00
2013-11-12,46.9,32.2,19.3,33.5,24.6,12.7,87,74,57,30.62,29.89,33,11,33,0.00
2013-11-13,55.0,45.5,37.1,37.5,34.6,28.5,78,67,47,29.89,29.67,27,7,27,0.00
2013-11-14,45.7,38.3,27.9,38.2,34.3,25.0,96,86,74,29.73,29.61,21,7,21,0.01
2013-11-15,52.7,37.8,27.3,36.5,29.3,24.8,93,73,47,29.62,29.20,24,10,27,0.00
2013-11-16,42.9,36.8,31.9,36.9,31.6,26.0,95,82,69,29.31,29.17,16,3,16,0.02
2013-11-17,32.5,25.7,22.4,31.1,23.6,19.6,95,92,89,29.91,29.31,8,3,13,0.00
2013-11-18,37.1,26.7,14.7,30.8,22.8,11.7,90,86,77,30.03,29.79,25,6,25,0.05
2013-11-19,39.5,33.8,23.4,34.3,29.2,19.1,90,83,76,29.79,29.38,27,7,27,0.00
2013-11-20,23.3,14.6,5.7,18.6,10.6,2.1,89,84,76,30.38,29.60,26,8,26,0.00
2013-11-21,13.5,3.6,-7.7,6.5,-1.2,-11.6,85,80,73,30.66,30.38,33,10,33,0.00
2013-11-22,16.9,10.3,-9.2,13.2,4.6,-13.4,88,78,72,30.86,30.40,27,5,27,0.00
2013-11-23,20.2,3.5,-13.2,15.0,-1.2,-17.4,86,81,70,30.88,30.26,30,7,30,0.00
2013-11-24,38.3,30.3,20.6,29.6,23.2,15.1,80,75,66,30.26,29.77,33,12,41,0.00
2013-11-25,32.7,26.7,14.5,26.4,21.2,9.9,84,80,76,30.29,29.86,29,12,29,0.00
2013-11-26,19.8,13.3,8.2,12.0,8.3,4.6,87,80,69,30.48,30.24,18,6,18,0.00
2013-11-27,28.2,22.9,14.8,21.5,17.5,9.2,87,80,72,30.24,29.87,31,9,31,0.00
2013-11-28,24.5,18.3,15.5,19.0,13.2,10.3,85,80,71,30.35,30.15,18,4,18,0.00
2013-11-29,31.2,24.4,16.9,27.3,20.4,13.1,90,85,77,30.18,29.90,22,6,22,0.00
2013-11-30,34.4,25.9,13.6,28.0,22.0,11.1,91,86,75,30.12,29.97,6,2,9,0.00
2013-12-1,26.0,20.0,13.6,24.7,18.2,11.1,95,93,90,30.10,29.66,9,3,11,0.00
2013-12-2,24.2,19.7,17.6,22.6,17.7,15.4,95,92,90,29.84,29.57,14,6,20,0.00
2013-12-3,18.1,9.3,6.2,15.8,6.2,3.3,91,87,85,30.08,29.83,21,5,21,0.00
2013-12-4,7.9,6.2,4.6,5.0,3.3,1.5,98,88,87,30.08,30.00,26,7,26,0.00
2013-12-5,-0.7,-4.5,-8.7,-4.9,-9.0,-13.5,93,81,78,30.42,30.07,15,12,27,0.00
2013-12-6,-8.5,-12.2,-14.7,-13.8,-17.5,-20.1,79,77,74,30.65,30.42,15,7,19,0.00
2013-12-7,-8.2,-13.8,-19.1,-14.7,-19.4,-24.4,79,76,72,30.65,30.39,16,5,16,0.00
2013-12-8,-15.3,-15.8,-16.7,-19.7,-20.3,-21.1,80,80,78,30.39,30.31,8,3,8,0.00
2013-12-9,6.5,-4.1,-12.8,2.6,-8.6,-17.5,93,81,78,30.14,29.71,13,7,25,0.00
2013-12-10,13.5,-6.1,-11.1,9.5,-11.6,-16.4,84,76,72,30.43,29.86,24,9,31,0.00
2013-12-11,9.9,1.2,-14.3,5.4,-3.6,-19.4,93,80,73,30.45,30.17,15,4,23,0.00
2013-12-12,16.8,9.6,5.1,13.3,5.5,1.0,90,83,80,30.20,30.11,16,3,16,0.00
2013-12-13,4.8,-4.1,-7.1,0.8,-8.3,-11.2,93,82,80,30.37,30.14,21,6,21,0.00
2013-12-14,5.8,1.0,-4.3,3.6,-3.1,-8.2,94,83,78,30.34,30.15,18,3,18,0.00
2013-12-15,14.6,1.9,-2.3,11.5,-1.9,-6.3,88,84,82,30.16,29.78,20,6,20,0.00
2013-12-16,34.2,29.9,14.7,29.6,24.4,11.6,94,80,70,29.93,29.77,30,11,30,0.05
2013-12-17,27.0,22.1,17.5,20.8,16.5,12.0,86,79,72,30.07,29.57,25,8,25,0.00
2013-12-18,32.6,24.9,3.7,26.6,20.1,-1.0,91,82,74,29.95,29.48,23,6,23,0.01
2013-12-19,2.4,-2.8,-8.5,-1.9,-7.2,-12.6,84,81,79,30.28,30.08,9,3,13,0.00
2013-12-20,7.0,-0.8,-7.7,1.4,-5.6,-11.8,85,80,74,30.14,29.79,21,5,21,0.00
2013-12-21,-5.3,-8.4,-12.4,-9.9,-12.5,-16.5,84,82,79,30.24,29.86,7,2,9,0.00
2013-12-22,-5.0,-9.1,-16.1,-9.1,-13.5,-20.5,93,81,76,30.58,30.24,8,2,8,0.00
2013-12-23,5.0,-14.1,-23.6,0.7,-18.5,-28.4,93,80,76,30.61,30.02,30,6,30,0.01
2013-12-24,32.0,23.3,5.1,28.8,19.5,0.9,90,85,81,30.02,29.89,47,11,47,0.00
2013-12-25,31.6,26.0,21.2,27.7,21.5,16.5,89,83,78,30.11,29.92,28,8,28,0.00
2013-12-26,33.8,29.1,23.6,29.2,25.5,21.3,93,87,82,29.95,29.74,25,9,26,0.00
2013-12-27,40.5,35.5,28.8,33.9,30.7,24.1,91,83,75,29.86,29.64,29,8,29,0.04
2013-12-28,34.8,6.6,-5.9,29.0,3.1,-10.3,93,85,79,30.50,29.54,17,6,24,0.00
2013-12-29,2.7,-4.1,-11.5,-2.1,-9.2,-16.4,81,78,73,30.51,30.11,17,6,17,0.00
2014-1-1,-0.5,-6.3,-10.0,-6.7,-10.9,-14.3,93,80,73,30.49,30.44,4,1,5,0.00
2014-1-2,13.1,-1.8,-15.1,10.1,-5.8,-19.3,93,83,79,30.47,29.72,27,8,37,0.00